Time;durP1;ratioP1;P1;durP2;ratioP2;P2;SDS_P1;SDS_P2;PMS_P1;PMS_P2;Temp;Humidity;BMP_temperature;BMP_pressure;BME280_temperature;BME280_humidity;BME280_pressure;Samples;Min_cycle;Max_cycle;Signal;HPM_P1;HPM_P2
2022/01/30 00:01:53;;;;;;;9.13;3.53;;;;;;;4.91;100.00;97953.31;4173010;28;20242;-66
2022/01/30 00:04:19;;;;;;;8.03;3.80;;;;;;;4.93;100.00;97944.25;4190033;28;20231;-65
2022/01/30 00:06:46;;;;;;;6.70;3.87;;;;;;;4.93;100.00;97941.63;4153541;28;20242;-68
2022/01/30 00:09:18;;;;;;;6.27;3.43;;;;;;;4.88;100.00;97943.13;4147694;28;20239;-67
2022/01/30 00:11:49;;;;;;;6.33;3.47;;;;;;;4.87;100.00;97952.84;4151912;28;20665;-66
2022/01/30 00:14:18;;;;;;;6.47;4.17;;;;;;;4.84;100.00;97956.63;4190878;28;20291;-66
2022/01/30 00:16:45;;;;;;;9.43;3.33;;;;;;;4.82;100.00;97950.72;4174089;28;20305;-65
2022/01/30 00:19:32;;;;;;;6.33;3.83;;;;;;;4.70;100.00;97981.03;4162728;28;20238;-67
2022/01/30 00:22:13;;;;;;;5.73;2.50;;;;;;;4.53;100.00;97990.78;4177126;28;20667;-66
2022/01/30 00:24:50;;;;;;;9.53;2.03;;;;;;;4.48;100.00;97979.13;4171400;28;23209;-65
2022/01/30 00:27:21;;;;;;;5.53;1.70;;;;;;;4.43;100.00;98003.31;4169989;28;20232;-65
2022/01/30 00:29:47;;;;;;;7.17;1.47;;;;;;;4.40;100.00;97993.94;4183081;28;20784;-67
2022/01/30 00:32:14;;;;;;;7.40;1.40;;;;;;;4.39;100.00;98021.25;4169000;28;20970;-64
2022/01/30 00:35:00;;;;;;;4.30;1.40;;;;;;;4.38;100.00;98022.25;4178001;28;20624;-68
2022/01/30 00:37:27;;;;;;;8.07;1.60;;;;;;;4.33;100.00;98021.06;4176082;28;20833;-67
2022/01/30 00:39:53;;;;;;;7.47;1.20;;;;;;;4.32;100.00;98037.88;4185027;28;20255;-70
2022/01/30 00:42:22;;;;;;;9.40;1.40;;;;;;;4.29;100.00;98043.47;4172775;28;20238;-68
2022/01/30 00:44:49;;;;;;;5.60;1.07;;;;;;;4.32;98.38;98040.50;4182822;28;20242;-70
2022/01/30 00:47:15;;;;;;;6.63;1.30;;;;;;;4.36;96.19;98049.72;4176318;28;21325;-69
2022/01/30 00:49:42;;;;;;;7.77;1.37;;;;;;;4.35;94.90;98032.28;4167725;28;20272;-68
2022/01/30 00:52:10;;;;;;;8.30;1.20;;;;;;;4.29;95.11;98044.28;4174178;28;20287;-70
2022/01/30 00:54:38;;;;;;;8.93;1.37;;;;;;;4.17;95.88;98022.72;4172798;28;20529;-67
2022/01/30 00:57:04;;;;;;;8.20;1.30;;;;;;;4.16;95.30;98034.22;4177005;28;20474;-69
2022/01/30 00:59:31;;;;;;;13.30;1.10;;;;;;;4.14;93.33;98052.00;4192325;28;20241;-68
2022/01/30 01:01:57;;;;;;;7.50;1.10;;;;;;;4.05;93.88;98036.34;4174850;28;21168;-70
2022/01/30 01:04:24;;;;;;;6.17;1.20;;;;;;;4.08;90.44;98005.28;4163636;28;20239;-70
2022/01/30 01:06:50;;;;;;;10.20;1.67;;;;;;;4.06;89.81;98038.84;4175726;28;20230;-69
2022/01/30 01:09:22;;;;;;;10.97;1.67;;;;;;;3.96;90.00;98051.34;4177754;28;20967;-67
2022/01/30 01:25:23;;;;;;;11.23;1.67;;;;;;;3.71;86.84;98051.25;4168817;28;20249;-70
2022/01/30 01:27:50;;;;;;;7.90;1.67;;;;;;;3.59;87.90;98052.53;4174174;28;21378;-70
2022/01/30 01:30:16;;;;;;;7.83;1.30;;;;;;;3.61;88.42;98037.44;4175112;28;20326;-70
2022/01/30 01:32:43;;;;;;;10.47;1.63;;;;;;;3.55;90.00;98032.81;4175176;28;20261;-73
2022/01/30 01:35:09;;;;;;;7.20;1.33;;;;;;;3.54;89.61;98031.16;4159613;28;20295;-68
2022/01/30 01:37:36;;;;;;;14.17;1.83;;;;;;;3.48;90.29;98031.78;4170322;28;20242;-67
2022/01/30 01:40:04;;;;;;;10.37;1.93;;;;;;;3.53;88.73;98026.88;4170489;28;20596;-67
2022/01/30 01:42:34;;;;;;;16.53;2.07;;;;;;;3.52;88.08;98041.03;4173241;28;20230;-68
2022/01/30 01:45:01;;;;;;;11.47;1.70;;;;;;;3.61;86.22;98034.00;4181095;28;21328;-68
2022/01/30 01:47:32;;;;;;;11.97;1.70;;;;;;;3.69;85.98;98031.38;4180163;28;20234;-69
2022/01/30 01:49:59;;;;;;;13.10;1.90;;;;;;;3.61;86.48;98036.63;4165095;28;20241;-70
2022/01/30 01:52:26;;;;;;;11.20;2.13;;;;;;;3.64;85.95;98012.63;4285934;28;23597;-68
2022/01/30 01:54:58;;;;;;;11.53;1.87;;;;;;;3.64;85.21;98029.22;4160225;28;25856;-69
2022/01/30 01:57:26;;;;;;;11.40;2.20;;;;;;;3.55;86.51;98035.44;4157680;28;20276;-69
2022/01/30 01:59:53;;;;;;;15.97;2.20;;;;;;;3.53;86.85;98016.34;4189898;28;20303;-70
2022/01/30 02:02:21;;;;;;;13.03;1.77;;;;;;;3.50;86.03;98017.50;4172755;28;20261;-68
2022/01/30 02:04:48;;;;;;;15.80;2.37;;;;;;;3.45;85.44;98032.13;4147457;28;22193;-69
2022/01/30 02:07:59;;;;;;;12.10;2.37;;;;;;;3.44;86.32;98027.81;4169932;28;20234;-67
2022/01/30 02:10:30;;;;;;;11.83;1.97;;;;;;;3.42;85.25;98014.88;4187255;28;20237;-69
2022/01/30 02:13:10;;;;;;;13.40;2.00;;;;;;;3.37;86.31;98027.63;4174437;28;20254;-69
2022/01/30 02:24:08;;;;;;;13.73;2.03;;;;;;;3.16;89.70;98001.75;4165202;28;20243;-68
2022/01/30 02:26:44;;;;;;;8.93;1.63;;;;;;;3.07;91.57;97995.66;4171361;28;20246;-68
2022/01/30 02:29:11;;;;;;;13.23;2.57;;;;;;;3.05;93.12;98002.06;4160519;28;23341;-70
2022/01/30 02:31:40;;;;;;;11.77;2.30;;;;;;;3.04;92.36;97980.19;4185752;28;20243;-68
2022/01/30 02:34:07;;;;;;;18.13;2.63;;;;;;;3.04;92.08;97984.63;4171694;28;25389;-69
2022/01/30 02:36:50;;;;;;;15.83;2.77;;;;;;;3.07;91.42;97984.34;4162377;28;20224;-69
2022/01/30 02:39:18;;;;;;;18.80;2.60;;;;;;;3.10;91.05;97978.75;4176435;28;20275;-68
2022/01/30 02:41:44;;;;;;;17.67;2.80;;;;;;;3.11;90.23;97988.28;4170339;28;23479;-69
2022/01/30 02:44:17;;;;;;;17.93;2.40;;;;;;;3.12;90.27;97974.19;4157136;28;22996;-68
2022/01/30 02:46:47;;;;;;;20.37;2.67;;;;;;;3.14;89.32;97969.59;4164958;28;21271;-66
2022/01/30 02:51:51;;;;;;;14.80;2.67;;;;;;;3.18;88.49;97952.50;4170338;28;20238;-69
2022/01/30 02:54:18;;;;;;;18.57;2.53;;;;;;;3.19;87.72;97961.22;4160151;28;20229;-70
2022/01/30 02:56:45;;;;;;;18.27;2.67;;;;;;;3.20;88.30;97955.81;4167302;28;20227;-70
2022/01/30 02:59:12;;;;;;;34.10;3.63;;;;;;;3.19;87.49;97946.28;4165905;28;20479;-71
2022/01/30 03:01:39;;;;;;;15.40;2.33;;;;;;;3.17;87.25;97948.25;4157929;28;20255;-70
2022/01/30 03:04:07;;;;;;;17.47;3.10;;;;;;;3.12;88.15;97940.03;4148459;28;20624;-70
2022/01/30 03:06:34;;;;;;;20.57;2.67;;;;;;;3.08;89.43;97988.59;4160600;28;21656;-69
2022/01/30 03:09:05;;;;;;;21.87;2.80;;;;;;;2.95;90.25;97984.63;4173314;28;20298;-71
2022/01/30 03:11:32;;;;;;;15.30;2.13;;;;;;;2.86;92.27;97985.56;4152762;28;20225;-69
2022/01/30 03:13:59;;;;;;;20.87;2.77;;;;;;;2.71;95.53;97992.34;4184560;28;20249;-69
2022/01/30 03:16:25;;;;;;;16.53;2.57;;;;;;;2.52;98.51;98006.50;4169353;28;21003;-70
2022/01/30 03:18:52;;;;;;;9.63;1.70;;;;;;;2.13;100.00;98008.66;4191477;28;20509;-69
2022/01/30 03:21:19;;;;;;;12.20;2.33;;;;;;;1.88;100.00;97990.13;4154751;28;21224;-72
2022/01/30 03:23:46;;;;;;;9.90;2.00;;;;;;;1.76;100.00;97970.34;4186050;28;20232;-69
2022/01/30 03:26:14;;;;;;;10.17;1.63;;;;;;;1.81;99.52;97957.59;4160522;28;20232;-70
2022/01/30 03:28:43;;;;;;;5.70;1.23;;;;;;;1.84;100.00;97954.69;4188876;28;20275;-71
2022/01/30 03:31:12;;;;;;;3.70;0.83;;;;;;;1.66;100.00;97971.25;4171267;28;20240;-70
2022/01/30 03:33:39;;;;;;;8.70;2.13;;;;;;;1.60;100.00;97950.03;4178473;28;20228;-70
2022/01/30 03:36:06;;;;;;;9.53;1.50;;;;;;;1.56;100.00;97957.38;4162884;28;21408;-71
2022/01/30 03:38:33;;;;;;;8.47;1.60;;;;;;;1.57;100.00;97951.16;4170605;28;20241;-69
2022/01/30 03:40:59;;;;;;;12.47;1.10;;;;;;;1.65;100.00;97930.25;4190330;28;20244;-69
2022/01/30 03:43:26;;;;;;;9.57;1.50;;;;;;;1.65;100.00;97934.69;4168988;28;21259;-70
2022/01/30 03:45:53;;;;;;;12.70;1.67;;;;;;;1.66;100.00;97925.84;4176890;28;20329;-69
2022/01/30 03:48:19;;;;;;;8.80;1.30;;;;;;;1.64;100.00;97923.38;4170171;28;20245;-68
2022/01/30 03:50:46;;;;;;;13.70;1.57;;;;;;;1.69;100.00;97926.38;4177978;28;22359;-71
2022/01/30 03:53:12;;;;;;;11.47;1.73;;;;;;;1.68;100.00;97924.69;4174615;28;20695;-70
2022/01/30 03:55:39;;;;;;;14.17;2.00;;;;;;;1.68;100.00;97913.41;4184357;28;20236;-69
2022/01/30 03:58:07;;;;;;;10.47;1.40;;;;;;;1.71;100.00;97896.53;4166137;28;21916;-71
2022/01/30 04:00:34;;;;;;;12.20;1.50;;;;;;;1.76;100.00;97896.94;4174211;28;20324;-72
2022/01/30 04:03:00;;;;;;;15.73;2.50;;;;;;;1.81;100.00;97890.25;4197549;28;20825;-71
2022/01/30 04:05:28;;;;;;;12.07;1.90;;;;;;;1.88;99.67;97882.59;4177294;28;20293;-70
2022/01/30 04:07:55;;;;;;;16.37;2.00;;;;;;;1.90;99.64;97888.53;4179701;28;20233;-71
2022/01/30 04:10:21;;;;;;;9.90;1.90;;;;;;;1.93;100.00;97882.97;4177330;28;20312;-70
2022/01/30 04:12:48;;;;;;;11.77;2.23;;;;;;;1.92;100.00;97868.22;4181930;28;20238;-69
2022/01/30 04:15:15;;;;;;;15.30;2.33;;;;;;;2.01;99.69;97877.75;4176857;28;20296;-70
2022/01/30 04:17:41;;;;;;;21.43;2.53;;;;;;;2.08;98.79;97876.19;4183372;28;20673;-72
2022/01/30 04:20:08;;;;;;;19.17;2.27;;;;;;;2.22;96.96;97871.34;4164838;28;20250;-70
2022/01/30 04:22:35;;;;;;;15.53;2.60;;;;;;;2.36;95.19;97852.38;4189445;28;23419;-71
2022/01/30 04:25:01;;;;;;;14.17;2.50;;;;;;;2.53;92.77;97840.19;4168237;28;21439;-70
2022/01/30 04:27:28;;;;;;;18.00;2.20;;;;;;;2.61;92.16;97852.50;4174198;28;20256;-70
2022/01/30 04:29:54;;;;;;;18.60;2.47;;;;;;;2.68;90.94;97854.34;4188699;28;20315;-69
2022/01/30 04:32:22;;;;;;;15.67;2.77;;;;;;;2.73;90.70;97867.81;4174297;28;21787;-71
2022/01/30 04:34:55;;;;;;;10.80;2.23;;;;;;;2.79;90.20;97852.41;4193912;28;20303;-69
2022/01/30 04:37:30;;;;;;;18.37;2.70;;;;;;;2.83;89.12;97825.66;4170540;28;20273;-70
2022/01/30 04:59:40;;;;;;;18.63;2.13;;;;;;;3.06;84.97;97777.75;4187487;28;20575;-70
2022/01/30 05:09:28;;;;;;;12.10;1.87;;;;;;;3.06;83.60;97778.56;4175761;28;20299;-68
2022/01/30 05:11:55;;;;;;;16.57;2.40;;;;;;;3.03;84.13;97742.13;4178494;28;23230;-68
2022/01/30 05:14:24;;;;;;;9.83;2.10;;;;;;;3.05;83.56;97740.16;4175912;28;20242;-68
2022/01/30 05:16:51;;;;;;;15.80;2.83;;;;;;;3.07;83.04;97745.25;4165750;28;20521;-69
2022/01/30 05:19:18;;;;;;;9.37;1.90;;;;;;;3.01;83.13;97746.72;4175852;28;20235;-69
2022/01/30 05:21:45;;;;;;;15.40;2.50;;;;;;;3.01;83.33;97744.09;4206551;28;20243;-68
2022/01/30 05:24:12;;;;;;;9.33;1.73;;;;;;;2.91;83.88;97722.44;4176526;28;20285;-70
2022/01/30 05:26:40;;;;;;;13.90;1.33;;;;;;;2.72;87.03;97724.38;4176263;28;20238;-70
2022/01/30 05:29:07;;;;;;;16.07;2.13;;;;;;;2.32;93.21;97704.13;4169480;28;23659;-70
2022/01/30 05:31:34;;;;;;;7.90;1.50;;;;;;;2.10;95.26;97739.63;4176676;28;20738;-70
2022/01/30 05:34:00;;;;;;;11.03;1.90;;;;;;;2.07;95.44;97758.31;4167429;28;23496;-69
2022/01/30 05:36:27;;;;;;;11.67;2.27;;;;;;;2.15;93.32;97753.06;4175886;28;21316;-69
2022/01/30 05:38:55;;;;;;;9.97;2.17;;;;;;;2.21;92.83;97741.16;4173717;28;20281;-70
2022/01/30 05:41:22;;;;;;;11.20;2.43;;;;;;;2.25;91.74;97743.28;4168574;28;21437;-69
2022/01/30 05:43:53;;;;;;;10.13;1.97;;;;;;;2.31;90.55;97768.88;4182666;28;20670;-68
2022/01/30 05:46:31;;;;;;;14.97;2.37;;;;;;;2.44;88.92;97789.44;4184660;28;21522;-68
2022/01/30 05:48:57;;;;;;;14.53;2.40;;;;;;;2.49;87.62;97746.97;4177295;28;20653;-69
2022/01/30 05:51:24;;;;;;;10.50;1.97;;;;;;;2.47;87.83;97768.13;4177966;28;21822;-69
2022/01/30 05:53:50;;;;;;;11.57;1.83;;;;;;;2.46;86.67;97766.50;4171939;28;20326;-70
2022/01/30 05:56:17;;;;;;;13.17;2.10;;;;;;;2.51;87.02;97774.69;4190387;28;20229;-70
2022/01/30 05:58:44;;;;;;;12.80;2.60;;;;;;;2.54;86.11;97756.00;4167087;28;20245;-69
2022/01/30 06:01:10;;;;;;;10.57;2.13;;;;;;;2.49;85.59;97771.41;4172574;28;20279;-70
2022/01/30 06:03:37;;;;;;;10.43;1.67;;;;;;;2.47;86.12;97772.56;4176068;28;21266;-69
2022/01/30 06:06:06;;;;;;;14.40;2.10;;;;;;;2.53;85.01;97766.69;4154199;28;20229;-70
2022/01/30 06:08:42;;;;;;;11.80;1.90;;;;;;;2.53;85.12;97764.88;4200382;28;20229;-69
2022/01/30 06:11:09;;;;;;;13.10;2.10;;;;;;;2.57;84.33;97769.78;4172670;28;20225;-68
2022/01/30 06:13:36;;;;;;;12.10;2.30;;;;;;;2.56;84.44;97784.72;4184223;28;20358;-70
2022/01/30 06:16:03;;;;;;;14.00;2.07;;;;;;;2.54;84.54;97758.63;4162155;28;20546;-70
2022/01/30 06:18:30;;;;;;;12.50;2.60;;;;;;;2.56;84.55;97782.09;4174399;28;21211;-69
2022/01/30 06:20:57;;;;;;;12.17;1.90;;;;;;;2.59;84.22;97786.22;4185632;28;20814;-69
2022/01/30 06:23:26;;;;;;;9.23;1.93;;;;;;;2.54;84.65;97763.06;4180559;28;20364;-69
2022/01/30 06:25:53;;;;;;;13.37;2.33;;;;;;;2.49;85.19;97760.91;4175296;28;21809;-69
2022/01/30 06:28:19;;;;;;;6.93;1.50;;;;;;;2.53;85.01;97772.75;4166341;28;22146;-68
2022/01/30 06:30:46;;;;;;;15.03;2.43;;;;;;;2.48;85.72;97775.03;4170500;28;20237;-71
2022/01/30 06:33:13;;;;;;;17.37;2.57;;;;;;;2.41;86.50;97781.91;4165460;28;20249;-70
2022/01/30 06:35:39;;;;;;;12.77;2.33;;;;;;;2.39;86.37;97781.22;4177935;28;23530;-70
2022/01/30 06:38:06;;;;;;;13.90;2.20;;;;;;;2.32;86.74;97781.03;4170988;28;22201;-70
2022/01/30 06:40:32;;;;;;;17.07;2.10;;;;;;;2.35;86.20;97798.28;4174749;28;20241;-70
2022/01/30 06:43:00;;;;;;;16.03;2.47;;;;;;;2.35;86.40;97784.34;4195078;28;20368;-70
2022/01/30 06:45:31;;;;;;;16.13;2.77;;;;;;;2.30;86.44;97790.06;4203257;28;20264;-71
2022/01/30 06:47:58;;;;;;;12.67;2.00;;;;;;;2.19;86.92;97787.69;4182332;28;21725;-69
2022/01/30 06:50:24;;;;;;;13.87;2.30;;;;;;;2.16;87.54;97782.78;4169271;28;20241;-69
2022/01/30 06:52:51;;;;;;;10.00;2.17;;;;;;;2.17;87.58;97789.66;4184773;28;20229;-70
2022/01/30 06:55:17;;;;;;;17.27;3.10;;;;;;;2.19;87.64;97790.31;4191545;28;20233;-70
2022/01/30 06:57:45;;;;;;;15.00;2.20;;;;;;;2.21;87.27;97777.88;4192429;28;20669;-75
2022/01/30 07:00:12;;;;;;;9.67;1.60;;;;;;;2.26;86.83;97775.59;4172605;28;20523;-72
2022/01/30 07:02:39;;;;;;;7.63;1.80;;;;;;;2.35;87.32;97781.72;4183820;28;20233;-71
2022/01/30 07:05:06;;;;;;;11.53;2.27;;;;;;;2.30;86.65;97780.38;4163480;28;21906;-69
2022/01/30 07:07:33;;;;;;;13.47;1.83;;;;;;;2.33;86.87;97784.47;4167182;28;25602;-70
2022/01/30 07:10:00;;;;;;;14.30;2.20;;;;;;;2.37;86.68;97756.13;4200453;28;20227;-74
2022/01/30 07:12:27;;;;;;;12.03;2.10;;;;;;;2.30;87.56;97750.69;4169418;28;20246;-69
2022/01/30 07:14:53;;;;;;;7.30;1.87;;;;;;;2.30;88.04;97761.19;4159366;28;20244;-70
2022/01/30 07:17:20;;;;;;;13.73;2.20;;;;;;;2.23;89.43;97750.50;4175039;28;20238;-69
2022/01/30 07:19:47;;;;;;;12.40;2.03;;;;;;;2.22;89.27;97743.59;4177845;28;20310;-69
2022/01/30 07:22:13;;;;;;;13.40;2.50;;;;;;;2.18;90.13;97736.19;4162963;28;20238;-68
2022/01/30 07:24:40;;;;;;;12.80;2.20;;;;;;;2.17;90.13;97735.38;4168406;28;20642;-70
2022/01/30 07:27:07;;;;;;;16.03;2.30;;;;;;;2.19;90.21;97735.22;4177710;28;23741;-71
2022/01/30 07:29:33;;;;;;;8.33;2.10;;;;;;;2.18;90.64;97723.06;4168529;28;20229;-69
2022/01/30 07:32:00;;;;;;;10.57;1.63;;;;;;;2.10;93.26;97703.72;4170034;28;20271;-69
2022/01/30 07:34:26;;;;;;;11.10;2.17;;;;;;;1.91;96.35;97730.19;4174312;28;22181;-70
2022/01/30 07:36:56;;;;;;;10.63;2.43;;;;;;;1.81;98.12;97713.78;4169955;28;20847;-68
2022/01/30 07:39:27;;;;;;;9.73;2.10;;;;;;;1.52;100.00;97719.34;4174589;28;20304;-73
2022/01/30 07:41:54;;;;;;;12.37;1.93;;;;;;;1.24;100.00;97733.41;4174630;28;20308;-68
2022/01/30 07:44:20;;;;;;;7.57;1.37;;;;;;;0.76;100.00;97737.25;4172114;28;20229;-69
2022/01/30 07:46:47;;;;;;;7.93;1.80;;;;;;;0.54;100.00;97724.59;4158160;28;20306;-69
2022/01/30 07:49:14;;;;;;;11.90;1.90;;;;;;;0.18;100.00;97735.03;4179860;28;21337;-71
2022/01/30 07:51:40;;;;;;;8.07;2.00;;;;;;;-0.05;100.00;97740.66;4169318;28;20233;-73
2022/01/30 07:54:08;;;;;;;5.77;1.70;;;;;;;-0.12;100.00;97734.34;4176832;28;21208;-69
2022/01/30 07:56:34;;;;;;;13.27;2.23;;;;;;;-0.03;100.00;97724.81;4184110;28;23874;-68
2022/01/30 07:59:01;;;;;;;12.10;2.10;;;;;;;-0.08;100.00;97735.69;4173132;28;20239;-69
2022/01/30 08:01:28;;;;;;;9.33;2.27;;;;;;;-0.04;100.00;97741.47;4175510;28;20272;-69
2022/01/30 08:03:54;;;;;;;7.17;2.00;;;;;;;0.00;100.00;97737.63;4183187;28;20302;-69
2022/01/30 08:06:21;;;;;;;11.83;2.33;;;;;;;0.04;100.00;97745.97;4168829;28;20230;-70
2022/01/30 08:08:48;;;;;;;6.73;2.50;;;;;;;0.12;100.00;97752.13;4180252;28;20234;-71
2022/01/30 08:11:14;;;;;;;12.53;2.27;;;;;;;0.15;100.00;97754.44;4165559;28;20722;-71
2022/01/30 08:13:41;;;;;;;9.67;2.60;;;;;;;0.24;100.00;97765.84;4165403;28;20249;-70
2022/01/30 08:16:08;;;;;;;6.67;2.00;;;;;;;0.26;100.00;97763.91;4155030;28;20336;-70
2022/01/30 08:18:37;;;;;;;8.03;2.57;;;;;;;0.33;100.00;97778.03;4161356;28;20701;-70
2022/01/30 08:21:05;;;;;;;6.57;2.10;;;;;;;0.40;100.00;97770.44;4167789;28;23017;-69
2022/01/30 08:23:33;;;;;;;4.07;1.53;;;;;;;0.40;100.00;97750.31;4178966;28;21210;-71
2022/01/30 08:26:01;;;;;;;3.50;1.47;;;;;;;0.44;100.00;97768.34;4167279;28;22364;-71
2022/01/30 08:28:28;;;;;;;6.37;1.47;;;;;;;0.39;100.00;97766.16;4167661;28;21657;-70
2022/01/30 08:30:54;;;;;;;7.13;1.30;;;;;;;0.49;100.00;97742.53;4168466;28;21081;-70
2022/01/30 08:33:21;;;;;;;3.33;1.20;;;;;;;0.53;100.00;97749.13;4185896;28;20221;-70
2022/01/30 08:35:49;;;;;;;3.20;1.40;;;;;;;0.62;100.00;97766.56;4165312;28;20338;-69
2022/01/30 08:38:18;;;;;;;6.70;1.50;;;;;;;0.62;100.00;97770.00;4166009;28;20253;-69
2022/01/30 08:40:45;;;;;;;3.30;1.33;;;;;;;0.71;100.00;97778.78;4179247;28;20242;-71
2022/01/30 08:43:12;;;;;;;1.93;0.70;;;;;;;0.64;100.00;97767.25;4164530;28;22146;-68
2022/01/30 08:45:39;;;;;;;3.93;1.20;;;;;;;0.58;100.00;97768.66;4177280;28;20687;-69
2022/01/30 08:48:06;;;;;;;2.47;0.90;;;;;;;0.51;100.00;97754.50;4158725;28;20296;-71
2022/01/30 08:50:32;;;;;;;3.37;0.60;;;;;;;0.46;100.00;97766.41;4165080;28;20237;-69
2022/01/30 08:52:59;;;;;;;3.07;0.63;;;;;;;0.24;100.00;97765.00;4159940;28;20302;-71
2022/01/30 08:55:29;;;;;;;1.50;0.80;;;;;;;0.10;100.00;97769.75;4165386;28;21243;-71
2022/01/30 08:57:57;;;;;;;1.23;0.60;;;;;;;0.47;100.00;97765.41;4176581;28;21723;-69
2022/01/30 09:00:24;;;;;;;1.77;0.80;;;;;;;1.29;100.00;97780.13;4181787;28;20235;-72
2022/01/30 09:02:51;;;;;;;2.37;0.87;;;;;;;1.76;100.00;97786.84;4172601;28;20255;-66
2022/01/30 09:05:18;;;;;;;8.23;1.00;;;;;;;1.40;100.00;97784.28;4153486;28;20297;-68
2022/01/30 09:07:44;;;;;;;5.23;1.40;;;;;;;0.93;100.00;97780.13;4181856;28;20226;-67
2022/01/30 09:10:11;;;;;;;6.80;1.43;;;;;;;0.77;100.00;97775.56;4165191;28;23012;-68
2022/01/30 09:12:40;;;;;;;5.20;1.20;;;;;;;0.70;100.00;97771.88;4169894;28;20368;-67
2022/01/30 09:15:10;;;;;;;3.03;1.20;;;;;;;0.76;100.00;97781.75;4174456;28;20230;-69
2022/01/30 09:17:41;;;;;;;5.00;1.10;;;;;;;0.72;100.00;97775.16;4188709;28;22581;-68
2022/01/30 09:20:09;;;;;;;3.07;1.00;;;;;;;0.76;100.00;97779.13;4179874;28;21180;-67
2022/01/30 09:22:36;;;;;;;5.93;1.50;;;;;;;0.86;100.00;97771.22;4177785;28;20388;-67
2022/01/30 09:25:05;;;;;;;5.67;1.90;;;;;;;1.02;100.00;97776.59;4188903;28;20284;-68
2022/01/30 09:27:32;;;;;;;6.40;1.57;;;;;;;1.07;100.00;97757.81;4168717;28;21205;-75
2022/01/30 09:29:58;;;;;;;8.77;2.23;;;;;;;1.10;100.00;97768.00;4187661;28;20294;-72
2022/01/30 09:32:25;;;;;;;7.13;1.80;;;;;;;1.10;100.00;97773.25;4168080;28;20236;-68
2022/01/30 09:34:51;;;;;;;8.57;2.57;;;;;;;1.20;100.00;97766.13;4178593;28;23066;-74
2022/01/30 09:37:18;;;;;;;5.87;2.00;;;;;;;1.19;100.00;97782.78;4197777;28;20307;-73
2022/01/30 09:39:45;;;;;;;9.33;1.97;;;;;;;1.15;100.00;97781.47;4174985;28;22224;-68
2022/01/30 09:42:11;;;;;;;7.47;2.10;;;;;;;1.18;100.00;97775.09;4183621;28;20307;-73
2022/01/30 09:44:39;;;;;;;10.37;3.20;;;;;;;1.21;100.00;97774.78;4177555;28;20434;-69
2022/01/30 09:47:13;;;;;;;9.07;3.90;;;;;;;1.19;100.00;97774.94;4165096;28;20237;-69
2022/01/30 09:49:42;;;;;;;11.57;2.87;;;;;;;1.29;100.00;97781.88;4176255;28;20233;-70
2022/01/30 09:52:10;;;;;;;14.60;3.00;;;;;;;1.33;100.00;97775.38;4173943;28;22319;-70
2022/01/30 09:54:36;;;;;;;14.80;3.37;;;;;;;1.32;100.00;97777.19;4159319;28;20245;-73
2022/01/30 09:57:03;;;;;;;15.40;3.20;;;;;;;1.38;100.00;97775.72;4184026;28;20307;-69
2022/01/30 09:59:30;;;;;;;9.47;2.83;;;;;;;1.40;100.00;97774.59;4184207;28;20818;-71
2022/01/30 10:01:57;;;;;;;13.10;2.30;;;;;;;1.41;100.00;97771.03;4180226;28;20639;-71
2022/01/30 10:04:24;;;;;;;14.57;2.73;;;;;;;1.48;100.00;97776.47;4172907;28;20312;-70
2022/01/30 10:06:57;;;;;;;16.63;2.93;;;;;;;1.52;100.00;97767.31;4157992;28;20225;-71
2022/01/30 10:09:31;;;;;;;18.70;2.73;;;;;;;1.51;100.00;97772.72;4157186;28;22946;-71
2022/01/30 10:12:26;;;;;;;16.30;3.33;;;;;;;1.56;100.00;97767.84;4180910;28;25688;-70
2022/01/30 10:15:02;;;;;;;18.13;2.90;;;;;;;1.61;100.00;97769.03;4186551;28;20968;-70
2022/01/30 10:17:33;;;;;;;20.00;3.77;;;;;;;1.60;100.00;97756.91;4163369;28;20241;-69
2022/01/30 10:20:22;;;;;;;13.80;2.90;;;;;;;1.68;100.00;97743.81;4173223;28;21600;-70
2022/01/30 10:23:03;;;;;;;15.97;3.23;;;;;;;1.69;100.00;97744.69;4165530;28;20238;-71
2022/01/30 10:25:35;;;;;;;16.73;3.37;;;;;;;1.73;100.00;97747.78;4158061;28;20296;-73
2022/01/30 10:28:18;;;;;;;14.63;3.20;;;;;;;1.79;100.00;97753.25;4174421;28;20252;-70
2022/01/30 10:30:46;;;;;;;17.87;3.47;;;;;;;1.82;100.00;97757.34;4167515;28;20233;-69
2022/01/30 10:33:14;;;;;;;18.27;3.67;;;;;;;1.87;100.00;97755.94;4186036;28;21217;-72
2022/01/30 10:35:52;;;;;;;13.10;3.10;;;;;;;1.79;100.00;97748.00;4172619;28;20223;-70
2022/01/30 10:38:41;;;;;;;24.47;2.93;;;;;;;1.77;100.00;97757.00;4176951;28;20246;-70
2022/01/30 10:41:12;;;;;;;18.30;3.60;;;;;;;1.75;100.00;97745.84;4188658;28;22125;-68
2022/01/30 10:44:05;;;;;;;13.47;3.17;;;;;;;1.59;100.00;97751.81;4188146;28;25594;-70
2022/01/30 10:46:39;;;;;;;13.30;3.30;;;;;;;1.53;100.00;97762.91;4194317;28;21235;-68
2022/01/30 10:49:14;;;;;;;15.33;2.83;;;;;;;1.47;100.00;97759.09;4164536;28;20453;-69
2022/01/30 10:52:12;;;;;;;22.00;3.60;;;;;;;1.44;100.00;97762.84;4172862;28;20233;-75
2022/01/30 10:54:40;;;;;;;19.00;3.20;;;;;;;1.43;100.00;97757.78;4171632;28;22260;-71
2022/01/30 10:57:08;;;;;;;19.00;3.40;;;;;;;1.44;100.00;97746.31;4159857;28;20257;-68
2022/01/30 10:59:41;;;;;;;16.77;3.83;;;;;;;1.46;100.00;97745.19;4154434;28;21889;-70
2022/01/30 11:02:13;;;;;;;20.10;3.80;;;;;;;1.53;100.00;97737.53;4167933;28;20805;-68
2022/01/30 11:04:40;;;;;;;17.40;4.00;;;;;;;1.56;100.00;97716.25;4181596;28;20237;-71
2022/01/30 11:07:08;;;;;;;15.73;3.50;;;;;;;1.59;100.00;97736.94;4162909;28;20233;-68
2022/01/30 11:09:42;;;;;;;17.13;3.37;;;;;;;1.63;100.00;97732.19;4163970;28;20479;-68
2022/01/30 11:12:17;;;;;;;18.67;3.10;;;;;;;1.66;100.00;97734.47;4161786;28;21770;-69
2022/01/30 11:17:16;;;;;;;12.73;2.57;;;;;;;1.70;100.00;97743.69;4166868;28;20232;-71
2022/01/30 11:19:44;;;;;;;14.70;3.40;;;;;;;1.76;100.00;97742.25;4199317;28;20668;-70
2022/01/30 11:22:19;;;;;;;25.80;3.93;;;;;;;1.79;100.00;97742.75;4152411;28;20249;-69
2022/01/30 11:25:08;;;;;;;17.43;3.03;;;;;;;1.89;100.00;97764.44;4172105;28;20698;-71
2022/01/30 11:27:36;;;;;;;13.57;2.77;;;;;;;1.93;100.00;97783.31;4178249;28;20235;-71
2022/01/30 11:30:04;;;;;;;12.17;2.70;;;;;;;2.04;100.00;97777.81;4152822;28;21325;-70
2022/01/30 11:32:30;;;;;;;11.73;3.87;;;;;;;2.06;100.00;97802.06;4168760;28;21403;-70
2022/01/30 11:34:57;;;;;;;13.90;3.03;;;;;;;2.15;100.00;97792.44;4175496;28;20247;-69
2022/01/30 11:37:28;;;;;;;18.67;3.43;;;;;;;2.19;100.00;97795.56;4170391;28;20234;-68
2022/01/30 11:39:55;;;;;;;14.97;3.40;;;;;;;2.23;100.00;97797.72;4197685;28;20244;-67
2022/01/30 11:42:27;;;;;;;14.30;2.93;;;;;;;2.27;100.00;97800.84;4156170;28;22966;-70
2022/01/30 11:45:00;;;;;;;14.37;3.30;;;;;;;2.28;100.00;97805.94;4164859;28;20700;-68
2022/01/30 11:47:48;;;;;;;13.57;3.37;;;;;;;2.30;100.00;97811.03;4175489;28;20237;-68
2022/01/30 11:50:25;;;;;;;12.83;4.17;;;;;;;2.34;100.00;97801.84;4153973;28;20228;-69
2022/01/30 11:53:05;;;;;;;14.40;3.87;;;;;;;2.37;100.00;97811.25;4167486;28;25297;-70
2022/01/30 11:55:50;;;;;;;10.97;3.70;;;;;;;2.34;100.00;97807.09;4168646;28;20295;-70
2022/01/30 11:58:39;;;;;;;8.53;2.93;;;;;;;2.26;100.00;97807.91;4162814;28;20326;-68
2022/01/30 12:01:16;;;;;;;8.27;3.00;;;;;;;2.30;100.00;97805.78;4175184;28;20239;-73
2022/01/30 12:04:00;;;;;;;11.97;2.70;;;;;;;2.27;100.00;97825.31;4172671;28;20303;-67
2022/01/30 12:06:29;;;;;;;6.57;2.90;;;;;;;2.22;100.00;97839.84;4146432;28;21049;-70
2022/01/30 12:08:57;;;;;;;11.47;2.83;;;;;;;2.17;100.00;97835.06;4171845;28;20648;-73
2022/01/30 12:11:36;;;;;;;8.30;2.37;;;;;;;2.19;100.00;97843.63;4143427;28;20345;-70
2022/01/30 12:14:07;;;;;;;7.27;2.83;;;;;;;2.17;100.00;97834.25;4163417;28;20316;-70
2022/01/30 12:16:56;;;;;;;6.47;1.90;;;;;;;2.13;100.00;97856.53;4145838;28;21502;-73
2022/01/30 12:19:45;;;;;;;8.80;2.50;;;;;;;2.12;100.00;97868.81;4160719;28;20290;-71
2022/01/30 12:22:20;;;;;;;6.83;2.00;;;;;;;2.16;100.00;97862.28;4185388;28;20252;-70
2022/01/30 12:24:52;;;;;;;7.07;2.13;;;;;;;2.09;100.00;97875.19;4171675;28;20239;-69
2022/01/30 12:27:19;;;;;;;6.87;2.57;;;;;;;1.95;100.00;97888.06;4172433;28;20237;-69
2022/01/30 12:29:48;;;;;;;8.60;2.63;;;;;;;1.79;100.00;97891.38;4175877;28;21800;-69
2022/01/30 12:32:20;;;;;;;5.00;2.40;;;;;;;1.79;100.00;97886.13;4171948;28;20835;-69
2022/01/30 12:34:48;;;;;;;8.30;2.77;;;;;;;1.77;100.00;97911.69;4161549;28;23688;-71
2022/01/30 12:37:26;;;;;;;5.93;2.53;;;;;;;1.72;100.00;97922.63;4165911;28;20296;-70